sensor_id;sensor_type;location;lat;lon;timestamp;P1;durP1;ratioP1;P2;durP2;ratioP2
62014;SDS011;47970;52.396;9.586;2022-10-16T00:00:37;10.98;;;3.00;;
62014;SDS011;47970;52.396;9.586;2022-10-16T00:03:03;7.07;;;2.55;;
62014;SDS011;47970;52.396;9.586;2022-10-16T00:05:29;6.55;;;1.70;;
62014;SDS011;47970;52.396;9.586;2022-10-16T00:07:54;5.28;;;1.42;;
62014;SDS011;47970;52.396;9.586;2022-10-16T00:10:19;3.90;;;1.17;;
62014;SDS011;47970;52.396;9.586;2022-10-16T00:12:45;2.08;;;0.70;;
62014;SDS011;47970;52.396;9.586;2022-10-16T00:15:10;3.05;;;0.70;;
62014;SDS011;47970;52.396;9.586;2022-10-16T00:17:36;4.57;;;0.57;;
62014;SDS011;47970;52.396;9.586;2022-10-16T00:20:01;2.40;;;1.17;;
62014;SDS011;47970;52.396;9.586;2022-10-16T00:22:26;1.23;;;0.70;;
62014;SDS011;47970;52.396;9.586;2022-10-16T00:24:51;2.80;;;0.80;;
62014;SDS011;47970;52.396;9.586;2022-10-16T00:27:17;1.58;;;0.60;;
62014;SDS011;47970;52.396;9.586;2022-10-16T00:29:42;4.77;;;0.80;;
62014;SDS011;47970;52.396;9.586;2022-10-16T00:32:07;4.05;;;1.00;;
62014;SDS011;47970;52.396;9.586;2022-10-16T00:34:33;3.13;;;0.98;;
62014;SDS011;47970;52.396;9.586;2022-10-16T00:36:58;2.47;;;0.77;;
62014;SDS011;47970;52.396;9.586;2022-10-16T00:39:23;3.93;;;0.80;;
62014;SDS011;47970;52.396;9.586;2022-10-16T00:41:49;3.22;;;0.75;;
62014;SDS011;47970;52.396;9.586;2022-10-16T00:46:59;2.63;;;0.80;;
62014;SDS011;47970;52.396;9.586;2022-10-16T00:49:24;2.43;;;0.97;;
62014;SDS011;47970;52.396;9.586;2022-10-16T00:51:50;2.07;;;0.80;;
62014;SDS011;47970;52.396;9.586;2022-10-16T00:54:23;1.92;;;0.85;;
62014;SDS011;47970;52.396;9.586;2022-10-16T00:56:50;1.20;;;0.80;;
62014;SDS011;47970;52.396;9.586;2022-10-16T00:59:16;5.10;;;1.20;;
62014;SDS011;47970;52.396;9.586;2022-10-16T01:01:43;3.03;;;0.98;;
62014;SDS011;47970;52.396;9.586;2022-10-16T01:04:08;2.97;;;1.03;;
62014;SDS011;47970;52.396;9.586;2022-10-16T01:06:44;2.28;;;1.00;;
62014;SDS011;47970;52.396;9.586;2022-10-16T01:09:13;3.60;;;1.20;;
62014;SDS011;47970;52.396;9.586;2022-10-16T01:14:09;1.93;;;0.73;;
62014;SDS011;47970;52.396;9.586;2022-10-16T01:16:44;3.70;;;0.93;;
62014;SDS011;47970;52.396;9.586;2022-10-16T01:19:16;4.05;;;1.08;;
62014;SDS011;47970;52.396;9.586;2022-10-16T01:21:45;3.53;;;1.33;;
62014;SDS011;47970;52.396;9.586;2022-10-16T01:24:15;2.50;;;1.20;;
62014;SDS011;47970;52.396;9.586;2022-10-16T01:27:02;6.28;;;1.63;;
62014;SDS011;47970;52.396;9.586;2022-10-16T01:29:34;2.50;;;1.00;;
62014;SDS011;47970;52.396;9.586;2022-10-16T01:32:05;2.35;;;1.00;;
62014;SDS011;47970;52.396;9.586;2022-10-16T01:34:36;6.82;;;1.42;;
62014;SDS011;47970;52.396;9.586;2022-10-16T01:37:05;2.83;;;1.13;;
62014;SDS011;47970;52.396;9.586;2022-10-16T01:39:31;2.40;;;1.17;;
62014;SDS011;47970;52.396;9.586;2022-10-16T01:42:11;3.88;;;1.35;;
62014;SDS011;47970;52.396;9.586;2022-10-16T01:44:36;3.83;;;1.35;;
62014;SDS011;47970;52.396;9.586;2022-10-16T01:47:03;9.43;;;1.85;;
62014;SDS011;47970;52.396;9.586;2022-10-16T01:49:36;7.13;;;1.33;;
62014;SDS011;47970;52.396;9.586;2022-10-16T01:52:02;2.83;;;1.17;;
62014;SDS011;47970;52.396;9.586;2022-10-16T01:54:30;3.38;;;1.10;;
62014;SDS011;47970;52.396;9.586;2022-10-16T01:56:57;5.80;;;1.15;;
62014;SDS011;47970;52.396;9.586;2022-10-16T01:59:23;6.85;;;1.40;;
62014;SDS011;47970;52.396;9.586;2022-10-16T02:01:51;3.10;;;1.15;;
62014;SDS011;47970;52.396;9.586;2022-10-16T02:04:28;2.95;;;1.20;;
62014;SDS011;47970;52.396;9.586;2022-10-16T02:06:54;2.00;;;0.93;;
62014;SDS011;47970;52.396;9.586;2022-10-16T02:09:19;5.25;;;1.30;;
62014;SDS011;47970;52.396;9.586;2022-10-16T02:11:45;3.50;;;1.33;;
62014;SDS011;47970;52.396;9.586;2022-10-16T02:14:10;4.15;;;1.00;;
62014;SDS011;47970;52.396;9.586;2022-10-16T02:16:45;5.45;;;1.20;;
62014;SDS011;47970;52.396;9.586;2022-10-16T02:19:14;3.47;;;1.02;;
62014;SDS011;47970;52.396;9.586;2022-10-16T02:21:41;2.03;;;1.00;;
62014;SDS011;47970;52.396;9.586;2022-10-16T02:26:49;4.13;;;1.20;;
62014;SDS011;47970;52.396;9.586;2022-10-16T02:29:16;4.13;;;1.20;;
62014;SDS011;47970;52.396;9.586;2022-10-16T02:31:44;3.20;;;1.20;;
62014;SDS011;47970;52.396;9.586;2022-10-16T02:34:12;9.65;;;1.75;;
62014;SDS011;47970;52.396;9.586;2022-10-16T02:36:38;2.78;;;1.20;;
62014;SDS011;47970;52.396;9.586;2022-10-16T02:39:04;5.78;;;1.23;;
62014;SDS011;47970;52.396;9.586;2022-10-16T02:41:30;3.92;;;1.05;;
62014;SDS011;47970;52.396;9.586;2022-10-16T02:43:55;4.88;;;1.30;;
62014;SDS011;47970;52.396;9.586;2022-10-16T02:46:20;5.37;;;1.20;;
62014;SDS011;47970;52.396;9.586;2022-10-16T02:48:46;5.35;;;1.52;;
62014;SDS011;47970;52.396;9.586;2022-10-16T02:51:11;2.40;;;1.20;;
62014;SDS011;47970;52.396;9.586;2022-10-16T02:53:36;4.67;;;1.00;;
62014;SDS011;47970;52.396;9.586;2022-10-16T02:56:01;3.60;;;1.30;;
62014;SDS011;47970;52.396;9.586;2022-10-16T02:58:26;3.50;;;1.27;;
62014;SDS011;47970;52.396;9.586;2022-10-16T03:00:52;5.97;;;1.48;;
62014;SDS011;47970;52.396;9.586;2022-10-16T03:03:17;2.80;;;1.30;;
62014;SDS011;47970;52.396;9.586;2022-10-16T03:05:43;5.03;;;1.13;;
62014;SDS011;47970;52.396;9.586;2022-10-16T03:08:08;3.58;;;1.30;;
62014;SDS011;47970;52.396;9.586;2022-10-16T03:10:33;2.50;;;1.27;;
62014;SDS011;47970;52.396;9.586;2022-10-16T03:12:58;4.33;;;1.13;;
62014;SDS011;47970;52.396;9.586;2022-10-16T03:15:24;4.60;;;1.10;;
62014;SDS011;47970;52.396;9.586;2022-10-16T03:17:49;2.87;;;1.00;;
62014;SDS011;47970;52.396;9.586;2022-10-16T03:20:14;5.63;;;1.10;;
62014;SDS011;47970;52.396;9.586;2022-10-16T03:22:39;5.65;;;1.02;;
62014;SDS011;47970;52.396;9.586;2022-10-16T03:25:05;3.03;;;1.10;;
62014;SDS011;47970;52.396;9.586;2022-10-16T03:27:30;4.55;;;1.20;;
62014;SDS011;47970;52.396;9.586;2022-10-16T03:29:55;2.70;;;1.10;;
62014;SDS011;47970;52.396;9.586;2022-10-16T03:32:20;3.00;;;1.40;;
62014;SDS011;47970;52.396;9.586;2022-10-16T03:34:46;2.65;;;1.10;;
62014;SDS011;47970;52.396;9.586;2022-10-16T03:37:11;4.95;;;1.30;;
62014;SDS011;47970;52.396;9.586;2022-10-16T03:39:37;2.70;;;1.00;;
62014;SDS011;47970;52.396;9.586;2022-10-16T03:42:02;3.30;;;1.02;;
62014;SDS011;47970;52.396;9.586;2022-10-16T03:44:27;1.65;;;1.20;;
62014;SDS011;47970;52.396;9.586;2022-10-16T03:46:52;4.23;;;1.10;;
62014;SDS011;47970;52.396;9.586;2022-10-16T03:49:18;3.07;;;1.20;;
62014;SDS011;47970;52.396;9.586;2022-10-16T03:51:43;2.63;;;1.03;;
62014;SDS011;47970;52.396;9.586;2022-10-16T03:54:09;4.13;;;1.10;;
62014;SDS011;47970;52.396;9.586;2022-10-16T03:56:34;4.45;;;1.20;;
62014;SDS011;47970;52.396;9.586;2022-10-16T03:58:59;3.20;;;1.20;;
62014;SDS011;47970;52.396;9.586;2022-10-16T04:01:25;3.53;;;1.10;;
62014;SDS011;47970;52.396;9.586;2022-10-16T04:03:50;2.83;;;1.23;;
62014;SDS011;47970;52.396;9.586;2022-10-16T04:06:15;4.43;;;1.80;;
62014;SDS011;47970;52.396;9.586;2022-10-16T04:08:42;2.57;;;1.20;;
62014;SDS011;47970;52.396;9.586;2022-10-16T04:11:07;4.00;;;1.30;;
62014;SDS011;47970;52.396;9.586;2022-10-16T04:13:32;2.80;;;1.10;;
62014;SDS011;47970;52.396;9.586;2022-10-16T04:15:58;4.63;;;1.40;;
62014;SDS011;47970;52.396;9.586;2022-10-16T04:18:23;4.40;;;1.30;;
62014;SDS011;47970;52.396;9.586;2022-10-16T04:20:48;6.50;;;1.30;;
62014;SDS011;47970;52.396;9.586;2022-10-16T04:23:13;6.37;;;1.30;;
62014;SDS011;47970;52.396;9.586;2022-10-16T04:25:38;2.93;;;1.30;;
62014;SDS011;47970;52.396;9.586;2022-10-16T04:28:04;3.17;;;1.17;;
62014;SDS011;47970;52.396;9.586;2022-10-16T04:30:29;2.80;;;1.10;;
62014;SDS011;47970;52.396;9.586;2022-10-16T04:32:54;4.40;;;1.30;;
62014;SDS011;47970;52.396;9.586;2022-10-16T04:35:20;7.13;;;1.10;;
62014;SDS011;47970;52.396;9.586;2022-10-16T04:37:45;3.60;;;1.30;;
62014;SDS011;47970;52.396;9.586;2022-10-16T04:40:11;8.20;;;1.33;;
62014;SDS011;47970;52.396;9.586;2022-10-16T04:42:36;7.77;;;1.10;;
62014;SDS011;47970;52.396;9.586;2022-10-16T04:45:01;5.13;;;1.20;;
62014;SDS011;47970;52.396;9.586;2022-10-16T04:47:26;1.83;;;1.02;;
62014;SDS011;47970;52.396;9.586;2022-10-16T04:49:51;5.07;;;1.27;;
62014;SDS011;47970;52.396;9.586;2022-10-16T04:52:17;7.60;;;1.53;;
62014;SDS011;47970;52.396;9.586;2022-10-16T04:54:43;4.47;;;1.38;;
62014;SDS011;47970;52.396;9.586;2022-10-16T04:57:10;5.60;;;1.60;;
62014;SDS011;47970;52.396;9.586;2022-10-16T04:59:35;3.70;;;1.30;;
62014;SDS011;47970;52.396;9.586;2022-10-16T05:02:00;2.67;;;1.20;;
62014;SDS011;47970;52.396;9.586;2022-10-16T05:04:26;1.63;;;0.80;;
62014;SDS011;47970;52.396;9.586;2022-10-16T05:06:51;5.77;;;1.20;;
62014;SDS011;47970;52.396;9.586;2022-10-16T05:09:16;3.17;;;1.10;;
62014;SDS011;47970;52.396;9.586;2022-10-16T05:11:41;2.13;;;0.93;;
62014;SDS011;47970;52.396;9.586;2022-10-16T05:14:06;2.57;;;0.90;;
62014;SDS011;47970;52.396;9.586;2022-10-16T05:16:32;3.97;;;1.07;;
62014;SDS011;47970;52.396;9.586;2022-10-16T05:18:57;3.95;;;1.00;;
62014;SDS011;47970;52.396;9.586;2022-10-16T05:21:22;2.63;;;1.10;;
62014;SDS011;47970;52.396;9.586;2022-10-16T05:23:47;5.47;;;1.27;;
62014;SDS011;47970;52.396;9.586;2022-10-16T05:26:13;4.47;;;1.00;;
62014;SDS011;47970;52.396;9.586;2022-10-16T05:28:38;10.37;;;1.27;;
62014;SDS011;47970;52.396;9.586;2022-10-16T05:31:04;4.10;;;1.40;;
62014;SDS011;47970;52.396;9.586;2022-10-16T05:33:29;7.45;;;1.20;;
62014;SDS011;47970;52.396;9.586;2022-10-16T05:35:54;3.97;;;1.10;;
62014;SDS011;47970;52.396;9.586;2022-10-16T05:38:19;2.27;;;1.00;;
62014;SDS011;47970;52.396;9.586;2022-10-16T05:40:50;2.97;;;0.90;;
62014;SDS011;47970;52.396;9.586;2022-10-16T05:43:15;1.23;;;0.93;;
62014;SDS011;47970;52.396;9.586;2022-10-16T05:45:41;2.57;;;1.30;;
62014;SDS011;47970;52.396;9.586;2022-10-16T05:48:06;4.07;;;1.27;;
62014;SDS011;47970;52.396;9.586;2022-10-16T05:50:31;5.20;;;1.00;;
62014;SDS011;47970;52.396;9.586;2022-10-16T05:52:56;3.05;;;1.10;;
62014;SDS011;47970;52.396;9.586;2022-10-16T05:55:22;2.40;;;1.10;;
62014;SDS011;47970;52.396;9.586;2022-10-16T05:57:47;4.10;;;0.85;;
62014;SDS011;47970;52.396;9.586;2022-10-16T06:00:12;4.10;;;1.20;;
62014;SDS011;47970;52.396;9.586;2022-10-16T06:02:37;1.13;;;0.90;;
62014;SDS011;47970;52.396;9.586;2022-10-16T06:05:03;2.17;;;1.02;;
62014;SDS011;47970;52.396;9.586;2022-10-16T06:07:28;5.32;;;1.00;;
62014;SDS011;47970;52.396;9.586;2022-10-16T06:09:54;1.90;;;0.90;;
62014;SDS011;47970;52.396;9.586;2022-10-16T06:12:19;5.03;;;1.13;;
62014;SDS011;47970;52.396;9.586;2022-10-16T06:14:45;1.33;;;0.98;;
62014;SDS011;47970;52.396;9.586;2022-10-16T06:17:12;2.55;;;0.90;;
62014;SDS011;47970;52.396;9.586;2022-10-16T06:19:37;2.85;;;0.85;;
62014;SDS011;47970;52.396;9.586;2022-10-16T06:22:02;4.40;;;1.00;;
62014;SDS011;47970;52.396;9.586;2022-10-16T06:24:29;2.85;;;1.17;;
62014;SDS011;47970;52.396;9.586;2022-10-16T06:26:54;5.97;;;1.40;;
62014;SDS011;47970;52.396;9.586;2022-10-16T06:29:19;2.53;;;0.97;;
62014;SDS011;47970;52.396;9.586;2022-10-16T06:31:44;2.53;;;1.03;;
62014;SDS011;47970;52.396;9.586;2022-10-16T06:34:10;4.03;;;0.90;;
62014;SDS011;47970;52.396;9.586;2022-10-16T06:36:36;3.13;;;1.20;;
62014;SDS011;47970;52.396;9.586;2022-10-16T06:39:02;3.25;;;1.00;;
62014;SDS011;47970;52.396;9.586;2022-10-16T06:41:27;7.72;;;1.33;;
62014;SDS011;47970;52.396;9.586;2022-10-16T06:43:53;1.73;;;0.90;;
62014;SDS011;47970;52.396;9.586;2022-10-16T06:46:20;1.50;;;0.80;;
62014;SDS011;47970;52.396;9.586;2022-10-16T06:48:45;3.60;;;0.93;;
62014;SDS011;47970;52.396;9.586;2022-10-16T06:53:36;2.53;;;0.80;;
62014;SDS011;47970;52.396;9.586;2022-10-16T06:56:12;4.45;;;1.25;;
62014;SDS011;47970;52.396;9.586;2022-10-16T06:58:37;6.32;;;0.95;;
62014;SDS011;47970;52.396;9.586;2022-10-16T07:01:03;1.02;;;0.90;;
62014;SDS011;47970;52.396;9.586;2022-10-16T07:03:28;5.43;;;1.00;;
62014;SDS011;47970;52.396;9.586;2022-10-16T07:05:54;3.93;;;1.10;;
62014;SDS011;47970;52.396;9.586;2022-10-16T07:08:19;4.50;;;0.90;;
62014;SDS011;47970;52.396;9.586;2022-10-16T07:10:44;0.80;;;0.63;;
62014;SDS011;47970;52.396;9.586;2022-10-16T07:13:09;2.80;;;0.90;;
62014;SDS011;47970;52.396;9.586;2022-10-16T07:15:38;2.17;;;0.85;;
62014;SDS011;47970;52.396;9.586;2022-10-16T07:18:03;2.40;;;0.80;;
62014;SDS011;47970;52.396;9.586;2022-10-16T07:20:28;3.60;;;0.93;;
62014;SDS011;47970;52.396;9.586;2022-10-16T07:22:53;1.37;;;0.80;;
62014;SDS011;47970;52.396;9.586;2022-10-16T07:25:19;4.80;;;0.85;;
62014;SDS011;47970;52.396;9.586;2022-10-16T07:27:44;2.73;;;0.90;;
62014;SDS011;47970;52.396;9.586;2022-10-16T07:30:09;5.27;;;0.80;;
62014;SDS011;47970;52.396;9.586;2022-10-16T07:32:35;3.25;;;0.73;;
62014;SDS011;47970;52.396;9.586;2022-10-16T07:35:00;2.33;;;0.90;;
62014;SDS011;47970;52.396;9.586;2022-10-16T07:37:25;1.60;;;0.80;;
62014;SDS011;47970;52.396;9.586;2022-10-16T07:39:50;3.03;;;0.70;;
62014;SDS011;47970;52.396;9.586;2022-10-16T07:42:16;2.70;;;0.90;;
62014;SDS011;47970;52.396;9.586;2022-10-16T07:44:41;1.07;;;0.77;;
62014;SDS011;47970;52.396;9.586;2022-10-16T07:47:07;3.23;;;0.80;;
62014;SDS011;47970;52.396;9.586;2022-10-16T07:49:33;1.20;;;0.70;;
62014;SDS011;47970;52.396;9.586;2022-10-16T07:51:58;1.53;;;0.90;;
62014;SDS011;47970;52.396;9.586;2022-10-16T07:54:23;2.13;;;0.80;;
62014;SDS011;47970;52.396;9.586;2022-10-16T07:56:48;1.88;;;0.70;;
62014;SDS011;47970;52.396;9.586;2022-10-16T07:59:14;3.03;;;0.80;;
62014;SDS011;47970;52.396;9.586;2022-10-16T08:01:39;1.53;;;0.70;;
62014;SDS011;47970;52.396;9.586;2022-10-16T08:04:05;1.98;;;0.80;;
62014;SDS011;47970;52.396;9.586;2022-10-16T08:06:30;0.77;;;0.60;;
62014;SDS011;47970;52.396;9.586;2022-10-16T08:08:59;7.00;;;0.80;;
62014;SDS011;47970;52.396;9.586;2022-10-16T08:11:24;1.23;;;0.57;;
62014;SDS011;47970;52.396;9.586;2022-10-16T08:13:50;2.27;;;0.90;;
62014;SDS011;47970;52.396;9.586;2022-10-16T08:16:15;1.80;;;0.50;;
62014;SDS011;47970;52.396;9.586;2022-10-16T08:18:42;1.77;;;0.70;;
62014;SDS011;47970;52.396;9.586;2022-10-16T08:21:08;2.63;;;0.70;;
62014;SDS011;47970;52.396;9.586;2022-10-16T08:23:36;3.70;;;0.80;;
62014;SDS011;47970;52.396;9.586;2022-10-16T08:26:03;3.13;;;0.80;;
62014;SDS011;47970;52.396;9.586;2022-10-16T08:28:28;2.25;;;1.20;;
62014;SDS011;47970;52.396;9.586;2022-10-16T08:30:54;1.87;;;0.70;;
62014;SDS011;47970;52.396;9.586;2022-10-16T08:33:19;5.80;;;0.70;;
62014;SDS011;47970;52.396;9.586;2022-10-16T08:35:51;2.23;;;0.80;;
62014;SDS011;47970;52.396;9.586;2022-10-16T08:38:17;1.65;;;0.65;;
62014;SDS011;47970;52.396;9.586;2022-10-16T08:40:42;5.30;;;0.80;;
62014;SDS011;47970;52.396;9.586;2022-10-16T08:48:20;1.13;;;0.60;;
62014;SDS011;47970;52.396;9.586;2022-10-16T08:50:48;2.08;;;0.70;;
62014;SDS011;47970;52.396;9.586;2022-10-16T08:53:15;1.80;;;0.70;;
62014;SDS011;47970;52.396;9.586;2022-10-16T08:55:43;1.02;;;0.50;;
62014;SDS011;47970;52.396;9.586;2022-10-16T08:58:14;3.33;;;0.70;;
62014;SDS011;47970;52.396;9.586;2022-10-16T09:00:40;0.77;;;0.60;;
62014;SDS011;47970;52.396;9.586;2022-10-16T09:06:07;4.35;;;0.85;;
62014;SDS011;47970;52.396;9.586;2022-10-16T09:08:44;2.95;;;0.60;;
62014;SDS011;47970;52.396;9.586;2022-10-16T09:12:00;2.38;;;0.80;;
62014;SDS011;47970;52.396;9.586;2022-10-16T09:21:39;2.33;;;0.82;;
62014;SDS011;47970;52.396;9.586;2022-10-16T09:24:13;1.55;;;0.57;;
62014;SDS011;47970;52.396;9.586;2022-10-16T09:26:39;1.45;;;0.80;;
62014;SDS011;47970;52.396;9.586;2022-10-16T09:29:04;2.77;;;0.67;;
62014;SDS011;47970;52.396;9.586;2022-10-16T09:31:29;6.97;;;0.83;;
62014;SDS011;47970;52.396;9.586;2022-10-16T09:34:00;1.63;;;0.73;;
62014;SDS011;47970;52.396;9.586;2022-10-16T09:36:29;2.67;;;0.70;;
62014;SDS011;47970;52.396;9.586;2022-10-16T09:39:04;3.00;;;0.90;;
62014;SDS011;47970;52.396;9.586;2022-10-16T09:41:30;1.20;;;0.60;;
62014;SDS011;47970;52.396;9.586;2022-10-16T09:43:56;2.05;;;0.70;;
62014;SDS011;47970;52.396;9.586;2022-10-16T09:46:29;3.97;;;1.30;;
62014;SDS011;47970;52.396;9.586;2022-10-16T09:48:56;1.58;;;0.82;;
62014;SDS011;47970;52.396;9.586;2022-10-16T09:53:47;2.03;;;0.80;;
62014;SDS011;47970;52.396;9.586;2022-10-16T09:56:20;1.15;;;0.60;;
62014;SDS011;47970;52.396;9.586;2022-10-16T09:58:49;5.32;;;0.85;;
62014;SDS011;47970;52.396;9.586;2022-10-16T10:01:15;1.52;;;0.68;;
62014;SDS011;47970;52.396;9.586;2022-10-16T10:03:42;0.80;;;0.65;;
62014;SDS011;47970;52.396;9.586;2022-10-16T10:06:42;2.17;;;0.70;;
62014;SDS011;47970;52.396;9.586;2022-10-16T10:09:00;2.28;;;0.70;;
62014;SDS011;47970;52.396;9.586;2022-10-16T10:11:39;4.50;;;1.30;;
62014;SDS011;47970;52.396;9.586;2022-10-16T10:14:26;3.78;;;0.82;;
62014;SDS011;47970;52.396;9.586;2022-10-16T10:16:51;3.08;;;0.63;;
62014;SDS011;47970;52.396;9.586;2022-10-16T10:19:18;2.00;;;0.73;;
62014;SDS011;47970;52.396;9.586;2022-10-16T10:21:43;1.65;;;0.80;;
62014;SDS011;47970;52.396;9.586;2022-10-16T10:24:12;3.00;;;0.77;;
62014;SDS011;47970;52.396;9.586;2022-10-16T10:26:38;1.98;;;0.70;;
62014;SDS011;47970;52.396;9.586;2022-10-16T10:29:09;5.05;;;0.70;;
62014;SDS011;47970;52.396;9.586;2022-10-16T10:31:52;4.47;;;0.73;;
62014;SDS011;47970;52.396;9.586;2022-10-16T10:34:28;2.25;;;0.55;;
62014;SDS011;47970;52.396;9.586;2022-10-16T10:37:02;2.55;;;0.70;;
62014;SDS011;47970;52.396;9.586;2022-10-16T10:39:33;3.10;;;0.70;;
62014;SDS011;47970;52.396;9.586;2022-10-16T10:42:05;1.50;;;0.57;;
62014;SDS011;47970;52.396;9.586;2022-10-16T10:44:50;1.77;;;0.68;;
62014;SDS011;47970;52.396;9.586;2022-10-16T10:54:51;5.82;;;0.80;;
62014;SDS011;47970;52.396;9.586;2022-10-16T10:57:27;3.70;;;0.70;;
62014;SDS011;47970;52.396;9.586;2022-10-16T10:59:59;1.95;;;0.80;;
62014;SDS011;47970;52.396;9.586;2022-10-16T11:02:35;5.13;;;0.90;;
62014;SDS011;47970;52.396;9.586;2022-10-16T11:05:19;2.05;;;0.90;;
62014;SDS011;47970;52.396;9.586;2022-10-16T11:08:21;1.98;;;0.80;;
62014;SDS011;47970;52.396;9.586;2022-10-16T11:15:47;2.20;;;0.80;;
62014;SDS011;47970;52.396;9.586;2022-10-16T11:18:17;4.15;;;1.00;;
62014;SDS011;47970;52.396;9.586;2022-10-16T11:23:16;1.77;;;0.70;;
62014;SDS011;47970;52.396;9.586;2022-10-16T11:25:43;2.72;;;0.95;;
62014;SDS011;47970;52.396;9.586;2022-10-16T11:28:29;2.15;;;0.68;;
62014;SDS011;47970;52.396;9.586;2022-10-16T11:33:37;1.30;;;0.50;;
62014;SDS011;47970;52.396;9.586;2022-10-16T11:43:43;3.85;;;0.90;;
62014;SDS011;47970;52.396;9.586;2022-10-16T11:46:15;2.42;;;0.88;;
62014;SDS011;47970;52.396;9.586;2022-10-16T11:48:48;3.88;;;0.70;;
62014;SDS011;47970;52.396;9.586;2022-10-16T11:51:16;4.10;;;0.88;;
62014;SDS011;47970;52.396;9.586;2022-10-16T11:56:11;2.90;;;0.90;;
62014;SDS011;47970;52.396;9.586;2022-10-16T12:01:33;4.40;;;0.70;;
62014;SDS011;47970;52.396;9.586;2022-10-16T12:04:21;1.10;;;0.63;;
62014;SDS011;47970;52.396;9.586;2022-10-16T12:07:03;1.67;;;0.60;;
62014;SDS011;47970;52.396;9.586;2022-10-16T12:09:31;3.85;;;0.90;;
62014;SDS011;47970;52.396;9.586;2022-10-16T12:11:57;2.50;;;0.60;;
62014;SDS011;47970;52.396;9.586;2022-10-16T12:16:55;2.45;;;0.70;;
62014;SDS011;47970;52.396;9.586;2022-10-16T12:19:21;2.38;;;0.55;;
62014;SDS011;47970;52.396;9.586;2022-10-16T12:21:46;2.42;;;0.60;;
62014;SDS011;47970;52.396;9.586;2022-10-16T12:26:46;1.65;;;0.70;;
62014;SDS011;47970;52.396;9.586;2022-10-16T12:31:37;3.20;;;0.90;;
62014;SDS011;47970;52.396;9.586;2022-10-16T12:34:04;3.47;;;1.00;;
62014;SDS011;47970;52.396;9.586;2022-10-16T12:36:33;3.90;;;1.30;;
62014;SDS011;47970;52.396;9.586;2022-10-16T12:38:59;2.03;;;0.85;;
62014;SDS011;47970;52.396;9.586;2022-10-16T12:41:26;3.72;;;0.80;;
62014;SDS011;47970;52.396;9.586;2022-10-16T12:43:52;1.35;;;0.52;;
62014;SDS011;47970;52.396;9.586;2022-10-16T12:48:43;3.37;;;0.70;;
62014;SDS011;47970;52.396;9.586;2022-10-16T12:51:10;1.70;;;0.55;;
62014;SDS011;47970;52.396;9.586;2022-10-16T12:53:36;4.63;;;0.90;;
62014;SDS011;47970;52.396;9.586;2022-10-16T12:58:31;4.63;;;0.70;;
62014;SDS011;47970;52.396;9.586;2022-10-16T13:01:22;4.32;;;0.80;;
62014;SDS011;47970;52.396;9.586;2022-10-16T13:04:00;1.97;;;0.60;;
62014;SDS011;47970;52.396;9.586;2022-10-16T13:19:31;3.65;;;0.60;;
62014;SDS011;47970;52.396;9.586;2022-10-16T13:27:07;6.25;;;0.60;;
62014;SDS011;47970;52.396;9.586;2022-10-16T13:29:35;3.33;;;0.70;;
62014;SDS011;47970;52.396;9.586;2022-10-16T13:32:00;2.53;;;0.60;;
62014;SDS011;47970;52.396;9.586;2022-10-16T13:34:26;2.15;;;0.80;;
62014;SDS011;47970;52.396;9.586;2022-10-16T13:36:52;2.42;;;0.75;;
62014;SDS011;47970;52.396;9.586;2022-10-16T13:42:05;2.38;;;0.80;;
62014;SDS011;47970;52.396;9.586;2022-10-16T13:44:35;4.55;;;0.90;;
62014;SDS011;47970;52.396;9.586;2022-10-16T13:47:02;1.52;;;0.60;;
62014;SDS011;47970;52.396;9.586;2022-10-16T13:49:27;2.38;;;0.88;;
62014;SDS011;47970;52.396;9.586;2022-10-16T13:51:55;2.73;;;0.67;;
62014;SDS011;47970;52.396;9.586;2022-10-16T13:54:21;1.92;;;0.50;;
62014;SDS011;47970;52.396;9.586;2022-10-16T13:56:46;4.50;;;0.70;;
62014;SDS011;47970;52.396;9.586;2022-10-16T13:59:24;1.13;;;0.60;;
62014;SDS011;47970;52.396;9.586;2022-10-16T14:01:50;8.10;;;1.10;;
62014;SDS011;47970;52.396;9.586;2022-10-16T14:04:17;2.65;;;0.88;;
62014;SDS011;47970;52.396;9.586;2022-10-16T14:06:43;1.75;;;0.60;;
62014;SDS011;47970;52.396;9.586;2022-10-16T14:09:23;1.88;;;0.80;;
62014;SDS011;47970;52.396;9.586;2022-10-16T14:11:54;2.95;;;0.70;;
62014;SDS011;47970;52.396;9.586;2022-10-16T14:14:20;4.05;;;0.95;;
62014;SDS011;47970;52.396;9.586;2022-10-16T14:16:45;2.63;;;0.90;;
62014;SDS011;47970;52.396;9.586;2022-10-16T14:22:17;1.83;;;0.70;;
62014;SDS011;47970;52.396;9.586;2022-10-16T14:24:46;4.78;;;0.68;;
62014;SDS011;47970;52.396;9.586;2022-10-16T14:27:23;3.03;;;0.70;;
62014;SDS011;47970;52.396;9.586;2022-10-16T14:29:50;2.00;;;0.80;;
62014;SDS011;47970;52.396;9.586;2022-10-16T14:32:22;5.43;;;0.87;;
62014;SDS011;47970;52.396;9.586;2022-10-16T14:34:52;2.92;;;0.80;;
62014;SDS011;47970;52.396;9.586;2022-10-16T14:37:23;3.10;;;0.73;;
62014;SDS011;47970;52.396;9.586;2022-10-16T14:39:49;5.25;;;0.80;;
62014;SDS011;47970;52.396;9.586;2022-10-16T14:42:16;4.38;;;0.98;;
62014;SDS011;47970;52.396;9.586;2022-10-16T14:44:42;3.42;;;0.90;;
62014;SDS011;47970;52.396;9.586;2022-10-16T14:47:09;5.63;;;0.90;;
62014;SDS011;47970;52.396;9.586;2022-10-16T14:49:37;7.28;;;0.80;;
62014;SDS011;47970;52.396;9.586;2022-10-16T14:52:04;2.00;;;0.77;;
62014;SDS011;47970;52.396;9.586;2022-10-16T14:54:30;2.88;;;0.70;;
62014;SDS011;47970;52.396;9.586;2022-10-16T14:56:56;3.60;;;0.87;;
62014;SDS011;47970;52.396;9.586;2022-10-16T15:01:49;1.27;;;0.70;;
62014;SDS011;47970;52.396;9.586;2022-10-16T15:04:15;3.70;;;0.70;;
62014;SDS011;47970;52.396;9.586;2022-10-16T15:06:40;2.20;;;0.70;;
62014;SDS011;47970;52.396;9.586;2022-10-16T15:09:06;2.85;;;0.88;;
62014;SDS011;47970;52.396;9.586;2022-10-16T15:11:31;0.97;;;0.57;;
62014;SDS011;47970;52.396;9.586;2022-10-16T15:13:57;3.00;;;0.70;;
62014;SDS011;47970;52.396;9.586;2022-10-16T15:16:22;5.75;;;0.82;;
62014;SDS011;47970;52.396;9.586;2022-10-16T15:18:47;2.23;;;0.70;;
62014;SDS011;47970;52.396;9.586;2022-10-16T15:23:51;4.72;;;0.82;;
62014;SDS011;47970;52.396;9.586;2022-10-16T15:26:16;2.92;;;0.60;;
62014;SDS011;47970;52.396;9.586;2022-10-16T15:28:41;1.30;;;0.80;;
62014;SDS011;47970;52.396;9.586;2022-10-16T15:31:07;3.00;;;0.80;;
62014;SDS011;47970;52.396;9.586;2022-10-16T15:33:32;2.47;;;0.70;;
62014;SDS011;47970;52.396;9.586;2022-10-16T15:35:59;2.53;;;0.80;;
62014;SDS011;47970;52.396;9.586;2022-10-16T15:38:25;1.23;;;0.70;;
62014;SDS011;47970;52.396;9.586;2022-10-16T15:40:51;1.38;;;0.80;;
62014;SDS011;47970;52.396;9.586;2022-10-16T15:43:16;4.53;;;1.10;;
62014;SDS011;47970;52.396;9.586;2022-10-16T15:45:41;2.42;;;0.90;;
62014;SDS011;47970;52.396;9.586;2022-10-16T15:48:09;3.53;;;1.00;;
62014;SDS011;47970;52.396;9.586;2022-10-16T15:50:35;3.83;;;0.80;;
62014;SDS011;47970;52.396;9.586;2022-10-16T15:53:02;1.17;;;0.80;;
62014;SDS011;47970;52.396;9.586;2022-10-16T15:55:27;3.67;;;1.00;;
62014;SDS011;47970;52.396;9.586;2022-10-16T15:57:52;3.93;;;1.03;;
62014;SDS011;47970;52.396;9.586;2022-10-16T16:00:18;2.67;;;1.27;;
62014;SDS011;47970;52.396;9.586;2022-10-16T16:02:50;3.47;;;1.00;;
62014;SDS011;47970;52.396;9.586;2022-10-16T16:05:16;2.17;;;1.13;;
62014;SDS011;47970;52.396;9.586;2022-10-16T16:07:42;1.33;;;0.88;;
62014;SDS011;47970;52.396;9.586;2022-10-16T16:10:07;3.83;;;0.93;;
62014;SDS011;47970;52.396;9.586;2022-10-16T16:12:33;2.63;;;1.02;;
62014;SDS011;47970;52.396;9.586;2022-10-16T16:14:58;2.58;;;0.93;;
62014;SDS011;47970;52.396;9.586;2022-10-16T16:17:24;4.37;;;0.87;;
62014;SDS011;47970;52.396;9.586;2022-10-16T16:19:49;1.57;;;0.77;;
62014;SDS011;47970;52.396;9.586;2022-10-16T16:22:14;4.30;;;1.05;;
62014;SDS011;47970;52.396;9.586;2022-10-16T16:24:39;4.47;;;1.13;;
62014;SDS011;47970;52.396;9.586;2022-10-16T16:27:05;2.77;;;0.90;;
62014;SDS011;47970;52.396;9.586;2022-10-16T16:29:30;3.90;;;1.03;;